createdAt,value
2022-11-25T00:00:56.575Z,93.39
2022-11-25T00:01:56.591Z,93.29
2022-11-25T00:02:56.644Z,93.07
2022-11-25T00:04:03.837Z,93.07
2022-11-25T00:04:56.526Z,93.29
2022-11-25T00:05:56.576Z,93.29
2022-11-25T00:06:56.571Z,93.18
2022-11-25T00:07:56.639Z,93.07
2022-11-25T00:08:56.617Z,93.07
2022-11-25T00:09:56.475Z,92.97
2022-11-25T00:10:56.504Z,92.86
2022-11-25T00:11:56.570Z,92.97
2022-11-25T00:12:56.429Z,92.97
2022-11-25T00:13:56.496Z,93.07
2022-11-25T00:14:57.416Z,93.07
2022-11-25T00:15:56.392Z,93.07
2022-11-25T00:16:56.450Z,92.97
2022-11-25T00:17:56.425Z,92.97
2022-11-25T00:18:56.397Z,92.86
2022-11-25T00:19:56.489Z,92.66
2022-11-25T00:20:56.336Z,92.66
2022-11-25T00:21:56.356Z,92.70
2022-11-25T00:22:56.306Z,92.70
2022-11-25T00:23:56.332Z,92.80
2022-11-25T00:24:56.298Z,92.86
2022-11-25T00:25:56.283Z,92.97
2022-11-25T00:26:56.284Z,92.97
2022-11-25T00:27:56.296Z,92.86
2022-11-25T00:28:56.215Z,92.76
2022-11-25T00:29:56.217Z,92.55
2022-11-25T00:30:56.224Z,92.55
2022-11-25T00:31:56.215Z,92.49
2022-11-25T00:32:56.164Z,92.49
2022-11-25T00:33:56.143Z,92.49
2022-11-25T00:34:56.156Z,92.80
2022-11-25T00:35:56.112Z,93.01
2022-11-25T00:36:56.134Z,93.12
2022-11-25T00:37:56.084Z,93.12
2022-11-25T00:38:56.083Z,92.91
2022-11-25T00:39:56.088Z,92.80
2022-11-25T00:40:56.053Z,92.60
2022-11-25T00:41:56.053Z,92.49
2022-11-25T00:42:56.025Z,92.39
2022-11-25T00:43:56.015Z,92.39
2022-11-25T00:44:56.013Z,92.49
2022-11-25T00:45:56.047Z,92.49
2022-11-25T00:46:55.977Z,92.49
2022-11-25T00:47:55.953Z,92.70
2022-11-25T00:48:55.953Z,92.80
2022-11-25T00:49:55.954Z,92.70
2022-11-25T00:50:55.926Z,92.70
2022-11-25T00:51:55.912Z,92.70
2022-11-25T00:52:55.903Z,92.80
2022-11-25T00:53:58.979Z,92.80
2022-11-25T00:54:55.890Z,92.80
2022-11-25T00:55:55.854Z,92.91
2022-11-25T00:56:55.843Z,92.91
2022-11-25T00:57:55.829Z,92.85
2022-11-25T00:58:55.813Z,92.64
2022-11-25T00:59:55.822Z,92.74
2022-11-25T01:00:55.804Z,92.85
2022-11-25T01:01:55.824Z,93.05
2022-11-25T01:02:55.763Z,93.05
2022-11-25T01:03:55.751Z,92.85
2022-11-25T01:04:55.752Z,92.85
2022-11-25T01:05:55.722Z,92.74
2022-11-25T01:06:55.711Z,92.85
2022-11-25T01:07:55.701Z,92.85
2022-11-25T01:08:55.682Z,92.85
2022-11-25T01:09:55.682Z,92.85
2022-11-25T01:10:55.652Z,92.95
2022-11-25T01:11:55.642Z,92.85
2022-11-25T01:12:55.646Z,92.85
2022-11-25T01:14:00.788Z,92.54
2022-11-25T01:14:56.658Z,92.54
2022-11-25T01:15:55.592Z,92.54
2022-11-25T01:16:55.613Z,92.64
2022-11-25T01:17:55.561Z,92.54
2022-11-25T01:18:55.550Z,92.54
2022-11-25T01:19:55.551Z,92.54
2022-11-25T01:20:55.511Z,92.54
2022-11-25T01:21:55.511Z,92.64
2022-11-25T01:22:55.491Z,92.74
2022-11-25T01:23:55.495Z,92.74
2022-11-25T01:24:55.490Z,92.74
2022-11-25T01:25:55.455Z,92.74
2022-11-25T01:26:55.450Z,92.74
2022-11-25T01:27:55.430Z,92.74
2022-11-25T01:28:55.421Z,92.64
2022-11-25T01:29:55.444Z,92.58
2022-11-25T01:30:55.392Z,92.47
2022-11-25T01:31:55.406Z,92.58
2022-11-25T01:32:55.373Z,92.68
2022-11-25T01:33:55.361Z,92.79
2022-11-25T01:34:55.360Z,92.58
2022-11-25T01:35:55.329Z,92.37
2022-11-25T01:36:55.321Z,92.47
2022-11-25T01:37:55.417Z,92.58
2022-11-25T01:38:55.290Z,92.79
2022-11-25T01:39:55.300Z,92.95
2022-11-25T01:40:55.261Z,92.85
2022-11-25T01:41:55.256Z,92.54
2022-11-25T01:42:55.242Z,92.54
2022-11-25T01:43:55.237Z,92.64
2022-11-25T01:44:55.218Z,92.64
2022-11-25T01:45:55.260Z,92.37
2022-11-25T01:46:55.188Z,92.27
2022-11-25T01:47:55.170Z,92.47
2022-11-25T01:48:55.159Z,92.58
2022-11-25T01:49:55.140Z,92.68
2022-11-25T01:50:55.159Z,92.68
2022-11-25T01:51:55.119Z,92.68
2022-11-25T01:52:55.108Z,92.79
2022-11-25T01:53:55.129Z,92.79
2022-11-25T01:54:55.078Z,92.68
2022-11-25T01:55:55.103Z,92.37
2022-11-25T01:56:55.059Z,92.16
2022-11-25T01:57:55.050Z,92.27
2022-11-25T01:58:55.030Z,92.58
2022-11-25T01:59:55.010Z,92.58
2022-11-25T02:00:55.040Z,92.52
2022-11-25T02:01:55.036Z,92.31
2022-11-25T02:02:54.984Z,92.31
2022-11-25T02:03:54.966Z,92.41
2022-11-25T02:04:54.951Z,92.62
2022-11-25T02:05:54.949Z,92.83
2022-11-25T02:06:54.928Z,92.93
2022-11-25T02:07:54.988Z,92.83
2022-11-25T02:08:54.897Z,92.83
2022-11-25T02:09:54.889Z,93.04
2022-11-25T02:10:54.888Z,93.04
2022-11-25T02:11:54.859Z,92.93
2022-11-25T02:12:54.869Z,92.93
2022-11-25T02:13:54.846Z,92.93
2022-11-25T02:14:54.819Z,92.72
2022-11-25T02:15:54.830Z,92.72
2022-11-25T02:16:54.857Z,92.72
2022-11-25T02:17:54.790Z,92.72
2022-11-25T02:18:54.780Z,92.83
2022-11-25T02:19:54.758Z,92.93
2022-11-25T02:20:54.757Z,92.93
2022-11-25T02:21:54.741Z,93.04
2022-11-25T02:22:54.781Z,92.93
2022-11-25T02:23:54.708Z,92.93
2022-11-25T02:24:54.678Z,92.93
2022-11-25T02:25:54.698Z,92.83
2022-11-25T02:26:54.667Z,92.93
2022-11-25T02:27:54.658Z,92.93
2022-11-25T02:28:54.647Z,92.93
2022-11-25T02:29:54.635Z,92.93
2022-11-25T02:30:54.649Z,92.93
2022-11-25T02:33:28.764Z,93.35
2022-11-25T02:34:05.216Z,93.46
2022-11-25T02:35:05.202Z,93.52
2022-11-25T02:36:05.211Z,93.52
2022-11-25T02:37:05.179Z,93.52
2022-11-25T02:38:05.167Z,93.41
2022-11-25T02:39:05.168Z,93.31
2022-11-25T02:40:05.149Z,93.31
2022-11-25T02:41:05.141Z,93.31
2022-11-25T02:42:05.113Z,93.31
2022-11-25T02:43:05.121Z,93.52
2022-11-25T02:44:05.080Z,93.62
2022-11-25T02:45:05.099Z,93.73
2022-11-25T02:46:05.081Z,93.68
2022-11-25T02:47:05.052Z,93.79
2022-11-25T02:48:05.043Z,93.68
2022-11-25T02:49:09.660Z,93.68
2022-11-25T02:50:06.000Z,93.68
2022-11-25T02:51:04.991Z,93.68
2022-11-25T02:52:04.997Z,93.68
2022-11-25T02:53:04.952Z,93.68
2022-11-25T02:54:04.961Z,93.68
2022-11-25T02:55:04.950Z,93.58
2022-11-25T02:56:04.921Z,93.58
2022-11-25T02:57:04.950Z,93.58
2022-11-25T02:58:04.912Z,93.43
2022-11-25T02:59:04.893Z,93.33
2022-11-25T03:00:04.870Z,93.16
2022-11-25T03:01:04.940Z,92.95
2022-11-25T03:02:04.899Z,92.85
2022-11-25T03:03:04.850Z,92.85
2022-11-25T03:04:04.835Z,93.05
2022-11-25T03:05:04.819Z,93.27
2022-11-25T03:06:04.822Z,93.37
2022-11-25T03:07:04.810Z,93.58
2022-11-25T03:08:04.773Z,93.68
2022-11-25T03:09:04.769Z,93.68
2022-11-25T03:10:04.742Z,93.58
2022-11-25T03:11:04.751Z,93.48
2022-11-25T03:12:04.731Z,93.48
2022-11-25T03:13:04.721Z,93.37
2022-11-25T03:14:04.691Z,93.37
2022-11-25T03:15:04.689Z,93.37
2022-11-25T03:16:04.723Z,93.37
2022-11-25T03:17:04.685Z,93.58
2022-11-25T03:18:04.656Z,93.68
2022-11-25T03:19:04.642Z,93.89
2022-11-25T03:20:04.622Z,93.95
2022-11-25T03:21:04.626Z,93.95
2022-11-25T03:22:04.628Z,93.95
2022-11-25T03:23:04.596Z,94.06
2022-11-25T03:24:04.571Z,94.16
2022-11-25T03:25:04.571Z,94.06
2022-11-25T03:26:04.552Z,94.10
2022-11-25T03:27:04.570Z,94.16
2022-11-25T03:28:04.521Z,94.37
2022-11-25T03:29:04.513Z,94.47
2022-11-25T03:30:04.514Z,94.57
2022-11-25T03:31:04.483Z,94.57
2022-11-25T03:32:09.312Z,94.47
2022-11-25T03:33:05.491Z,94.47
2022-11-25T03:34:04.453Z,94.47
2022-11-25T03:35:04.445Z,94.37
2022-11-25T03:36:04.423Z,94.26
2022-11-25T03:37:04.619Z,94.26
2022-11-25T03:38:04.391Z,94.26
2022-11-25T03:39:04.390Z,94.37
2022-11-25T03:40:04.361Z,94.26
2022-11-25T03:41:04.361Z,94.16
2022-11-25T03:42:04.362Z,94.16
2022-11-25T03:43:04.341Z,94.22
2022-11-25T03:44:04.317Z,94.32
2022-11-25T03:45:04.301Z,94.32
2022-11-25T03:46:04.341Z,94.26
2022-11-25T03:47:04.298Z,94.37
2022-11-25T03:48:04.261Z,94.47
2022-11-25T03:49:04.261Z,94.53
2022-11-25T03:50:04.234Z,94.53
2022-11-25T03:51:04.231Z,94.43
2022-11-25T03:52:04.212Z,94.32
2022-11-25T03:53:04.220Z,94.32
2022-11-25T03:54:04.181Z,94.22
2022-11-25T03:55:04.200Z,94.22
2022-11-25T03:56:04.202Z,94.22
2022-11-25T03:57:04.155Z,94.43
2022-11-25T03:58:04.150Z,94.53
2022-11-25T03:59:04.132Z,94.64
2022-11-25T04:00:04.112Z,94.74
2022-11-25T04:01:04.119Z,94.70
2022-11-25T04:02:04.125Z,94.59
2022-11-25T04:03:04.080Z,94.38
2022-11-25T04:04:04.061Z,94.28
2022-11-25T04:05:04.049Z,94.18
2022-11-25T04:06:04.032Z,94.18
2022-11-25T04:07:04.017Z,94.18
2022-11-25T04:08:04.079Z,94.18
2022-11-25T04:09:04.000Z,94.28
2022-11-25T04:10:03.970Z,94.49
2022-11-25T04:11:03.971Z,94.59
2022-11-25T04:12:03.949Z,94.70
2022-11-25T04:13:03.980Z,94.70
2022-11-25T04:14:03.929Z,94.70
2022-11-25T04:15:03.939Z,94.70
2022-11-25T04:16:03.900Z,94.80
2022-11-25T04:17:03.977Z,94.80
2022-11-25T04:18:03.898Z,94.76
2022-11-25T04:19:03.859Z,94.76
2022-11-25T04:20:03.848Z,94.65
2022-11-25T04:21:03.839Z,94.65
2022-11-25T04:22:03.828Z,94.76
2022-11-25T04:23:03.845Z,94.65
2022-11-25T04:24:03.791Z,94.65
2022-11-25T04:25:03.790Z,94.65
2022-11-25T04:26:03.767Z,94.76
2022-11-25T04:27:03.759Z,94.76
2022-11-25T04:28:03.760Z,94.76
2022-11-25T04:29:03.730Z,94.86
2022-11-25T04:30:03.723Z,94.96
2022-11-25T04:31:03.730Z,95.07
2022-11-25T04:32:03.690Z,95.17
2022-11-25T04:33:03.713Z,95.17
2022-11-25T04:34:03.668Z,95.17
2022-11-25T04:35:03.668Z,95.17
2022-11-25T04:36:03.642Z,95.17
2022-11-25T04:37:03.632Z,95.07
2022-11-25T04:38:03.633Z,94.96
2022-11-25T04:39:03.599Z,95.07
2022-11-25T04:40:03.586Z,95.07
2022-11-25T04:41:03.577Z,95.07
2022-11-25T04:42:03.548Z,95.07
2022-11-25T04:43:09.032Z,94.96
2022-11-25T04:44:04.530Z,94.86
2022-11-25T04:46:19.945Z,94.86
2022-11-25T04:47:04.541Z,94.71
2022-11-25T04:48:03.497Z,94.61
2022-11-25T04:49:03.459Z,94.51
2022-11-25T04:50:03.467Z,94.30
2022-11-25T04:51:03.449Z,94.09
2022-11-25T04:52:03.427Z,93.68
2022-11-25T04:53:03.440Z,93.47
2022-11-25T04:54:03.400Z,93.47
2022-11-25T04:55:03.391Z,93.37
2022-11-25T04:56:03.389Z,93.26
2022-11-25T04:57:03.370Z,93.37
2022-11-25T04:58:03.337Z,93.47
2022-11-25T04:59:03.357Z,93.68
2022-11-25T05:00:03.330Z,93.78
2022-11-25T05:01:03.359Z,93.88
2022-11-25T05:02:03.343Z,93.99
2022-11-25T05:03:03.293Z,94.09
2022-11-25T05:04:03.290Z,94.09
2022-11-25T05:05:03.263Z,94.09
2022-11-25T05:06:03.248Z,94.09
2022-11-25T05:07:03.238Z,94.20
2022-11-25T05:08:03.223Z,94.30
2022-11-25T05:09:03.228Z,94.51
2022-11-25T05:10:03.196Z,94.61
2022-11-25T05:11:03.193Z,94.61
2022-11-25T05:12:03.167Z,94.71
2022-11-25T05:13:03.147Z,94.82
2022-11-25T05:14:03.158Z,94.92
2022-11-25T05:15:03.127Z,94.92
2022-11-25T05:16:03.112Z,94.82
2022-11-25T05:17:03.152Z,94.71
2022-11-25T05:18:03.087Z,94.71
2022-11-25T05:19:03.087Z,94.82
2022-11-25T05:20:03.057Z,94.92
2022-11-25T05:21:03.052Z,94.92
2022-11-25T05:22:03.039Z,94.92
2022-11-25T05:23:03.028Z,94.82
2022-11-25T05:24:03.027Z,94.71
2022-11-25T05:25:02.997Z,94.92
2022-11-25T05:26:02.988Z,95.13
2022-11-25T05:27:02.967Z,95.34
2022-11-25T05:28:02.964Z,95.65
2022-11-25T05:29:02.958Z,95.75
2022-11-25T05:30:02.928Z,95.96
2022-11-25T05:31:03.001Z,96.06
2022-11-25T05:32:02.903Z,96.12
2022-11-25T05:33:02.897Z,96.23
2022-11-25T05:34:02.896Z,96.23
2022-11-25T05:35:02.871Z,96.23
2022-11-25T05:36:02.846Z,96.23
2022-11-25T05:37:02.866Z,96.23
2022-11-25T05:38:02.827Z,96.23
2022-11-25T05:39:02.837Z,96.33
2022-11-25T05:40:02.826Z,96.44
2022-11-25T05:41:02.807Z,96.44
2022-11-25T05:42:02.785Z,96.44
2022-11-25T05:43:02.806Z,96.23
2022-11-25T05:44:02.786Z,96.23
2022-11-25T05:45:02.799Z,96.02
2022-11-25T05:46:02.773Z,96.02
2022-11-25T05:47:02.785Z,96.02
2022-11-25T05:48:02.826Z,95.92
2022-11-25T05:49:02.727Z,95.81
2022-11-25T05:50:02.799Z,95.71
2022-11-25T05:51:02.798Z,95.86
2022-11-25T05:52:02.716Z,95.86
2022-11-25T05:53:02.778Z,96.06
2022-11-25T05:54:02.683Z,96.27
2022-11-25T05:55:02.637Z,96.37
2022-11-25T05:56:02.645Z,96.54
2022-11-25T05:57:02.626Z,96.64
2022-11-25T05:58:02.556Z,98.26
2022-11-25T05:59:02.596Z,99.99
2022-11-25T06:00:02.537Z,99.99
2022-11-25T06:01:02.536Z,99.99
2022-11-25T06:02:02.569Z,99.99
2022-11-25T06:03:02.761Z,99.99
2022-11-25T06:04:02.547Z,99.99
2022-11-25T06:05:02.507Z,99.99
2022-11-25T06:06:02.504Z,99.99
2022-11-25T06:07:02.486Z,99.78
2022-11-25T06:08:02.484Z,96.52
2022-11-25T06:09:02.466Z,93.68
2022-11-25T06:10:03.465Z,91.24
2022-11-25T06:11:02.486Z,90.25
2022-11-25T06:12:02.426Z,89.98
2022-11-25T06:13:02.407Z,90.12
2022-11-25T06:14:02.377Z,90.58
2022-11-25T06:15:02.325Z,91.09
2022-11-25T06:16:07.569Z,91.66
2022-11-25T06:17:03.294Z,92.18
2022-11-25T06:18:02.310Z,92.74
2022-11-25T06:19:02.316Z,93.15
2022-11-25T06:20:02.285Z,93.56
2022-11-25T06:21:02.275Z,93.98
2022-11-25T06:22:02.245Z,94.23
2022-11-25T06:23:02.238Z,94.54
2022-11-25T06:24:02.243Z,94.74
2022-11-25T06:25:04.118Z,94.95
2022-11-25T06:26:02.195Z,95.16
2022-11-25T06:27:02.200Z,95.37
2022-11-25T06:28:12.734Z,95.47
2022-11-25T06:29:03.174Z,95.68
2022-11-25T06:30:02.170Z,95.78
2022-11-25T06:31:02.152Z,95.89
2022-11-25T06:32:02.117Z,95.99
2022-11-25T06:33:02.116Z,95.99
2022-11-25T06:34:02.104Z,96.09
2022-11-25T06:35:02.096Z,96.09
2022-11-25T06:36:02.075Z,96.20
2022-11-25T06:37:02.056Z,96.20
2022-11-25T06:38:02.035Z,96.34
2022-11-25T06:39:02.070Z,96.45
2022-11-25T06:40:02.016Z,96.55
2022-11-25T06:41:02.003Z,96.66
2022-11-25T06:42:01.986Z,96.86
2022-11-25T06:43:01.994Z,96.92
2022-11-25T06:44:01.974Z,97.03
2022-11-25T06:45:01.956Z,97.13
2022-11-25T06:46:01.972Z,97.13
2022-11-25T06:47:01.935Z,97.13
2022-11-25T06:48:01.910Z,97.13
2022-11-25T06:49:01.907Z,97.13
2022-11-25T06:50:01.887Z,97.13
2022-11-25T06:51:01.878Z,97.13
2022-11-25T06:52:01.868Z,97.24
2022-11-25T06:53:01.834Z,97.24
2022-11-25T06:54:01.868Z,97.34
2022-11-25T06:55:01.822Z,97.34
2022-11-25T06:56:01.814Z,97.34
2022-11-25T06:57:01.784Z,97.34
2022-11-25T06:58:20.679Z,97.44
2022-11-25T06:59:02.796Z,97.44
2022-11-25T07:00:01.752Z,97.44
2022-11-25T07:01:01.744Z,97.44
2022-11-25T07:02:01.859Z,97.44
2022-11-25T07:03:01.734Z,97.39
2022-11-25T07:04:01.723Z,97.39
2022-11-25T07:05:01.694Z,97.39
2022-11-25T07:06:08.798Z,97.39
2022-11-25T07:07:01.657Z,97.39
2022-11-25T07:08:01.653Z,97.39
2022-11-25T07:09:01.649Z,97.39
2022-11-25T07:10:01.619Z,97.50
2022-11-25T07:11:01.626Z,97.50
2022-11-25T07:12:01.599Z,97.50
2022-11-25T07:13:01.578Z,97.60
2022-11-25T07:14:01.589Z,97.60
2022-11-25T07:15:01.548Z,97.60
2022-11-25T07:16:01.591Z,97.60
2022-11-25T07:17:01.527Z,97.60
2022-11-25T07:18:01.517Z,97.60
2022-11-25T07:19:01.516Z,97.60
2022-11-25T07:20:01.486Z,97.60
2022-11-25T07:21:01.476Z,97.60
2022-11-25T07:22:01.466Z,97.60
2022-11-25T07:23:01.446Z,97.71
2022-11-25T07:24:01.464Z,97.71
2022-11-25T07:25:01.415Z,97.81
2022-11-25T07:26:01.403Z,97.81
2022-11-25T07:27:01.399Z,97.81
2022-11-25T07:28:01.386Z,97.81
2022-11-25T07:29:01.376Z,97.81
2022-11-25T07:30:54.576Z,97.91
2022-11-25T07:32:07.120Z,98.02
2022-11-25T07:33:02.354Z,98.02
2022-11-25T07:34:01.317Z,98.12
2022-11-25T07:35:01.284Z,98.12
2022-11-25T07:36:01.276Z,98.22
2022-11-25T07:37:01.267Z,98.22
2022-11-25T07:38:01.297Z,98.33
2022-11-25T07:39:01.249Z,98.33
2022-11-25T07:40:01.227Z,98.33
2022-11-25T07:41:01.267Z,98.43
2022-11-25T07:42:01.197Z,98.43
2022-11-25T07:43:01.176Z,98.43
2022-11-25T07:44:01.187Z,98.54
2022-11-25T07:45:01.158Z,98.54
2022-11-25T07:46:01.167Z,98.64
2022-11-25T07:47:01.142Z,98.64
2022-11-25T07:48:01.116Z,98.74
2022-11-25T07:49:01.113Z,98.74
2022-11-25T07:50:01.096Z,98.70
2022-11-25T07:51:01.075Z,98.80
2022-11-25T07:52:01.065Z,98.80
2022-11-25T07:53:01.046Z,98.80
2022-11-25T07:54:01.056Z,98.80
2022-11-25T07:55:01.025Z,98.80
2022-11-25T07:56:01.006Z,98.80
2022-11-25T07:57:01.287Z,98.80
2022-11-25T07:58:00.986Z,98.80
2022-11-25T07:59:00.996Z,98.80
2022-11-25T08:00:00.967Z,98.80
2022-11-25T08:01:00.971Z,98.80
2022-11-25T08:02:01.092Z,98.91
2022-11-25T08:03:00.976Z,98.91
2022-11-25T08:04:00.907Z,98.91
2022-11-25T08:05:00.914Z,98.80
2022-11-25T08:06:00.877Z,98.80
2022-11-25T08:07:00.867Z,98.91
2022-11-25T08:08:00.952Z,98.91
2022-11-25T08:09:00.976Z,98.91
2022-11-25T08:10:00.862Z,98.96
2022-11-25T08:11:00.824Z,98.96
2022-11-25T08:12:00.823Z,98.96
2022-11-25T08:13:00.793Z,98.96
2022-11-25T08:14:00.780Z,98.96
2022-11-25T08:15:00.776Z,99.07
2022-11-25T08:16:00.855Z,99.07
2022-11-25T08:17:00.736Z,99.07
2022-11-25T08:18:00.725Z,99.07
2022-11-25T08:19:00.707Z,99.17
2022-11-25T08:20:00.733Z,99.17
2022-11-25T08:21:00.687Z,99.17
2022-11-25T08:22:00.666Z,99.17
2022-11-25T08:23:00.657Z,99.17
2022-11-25T08:24:00.647Z,99.27
2022-11-25T08:25:00.646Z,99.23
2022-11-25T08:26:00.635Z,99.33
2022-11-25T08:27:00.606Z,99.33
2022-11-25T08:28:00.607Z,99.23
2022-11-25T08:29:00.580Z,99.23
2022-11-25T08:30:00.585Z,99.23
2022-11-25T08:31:00.592Z,99.23
2022-11-25T08:32:00.566Z,99.23
2022-11-25T08:33:00.581Z,99.23
2022-11-25T08:34:00.617Z,99.23
2022-11-25T08:35:00.661Z,99.23
2022-11-25T08:36:00.494Z,99.13
2022-11-25T08:37:00.583Z,99.13
2022-11-25T08:38:00.456Z,99.02
2022-11-25T08:39:00.465Z,99.02
2022-11-25T08:40:01.133Z,98.97
2022-11-25T08:41:00.425Z,98.87
2022-11-25T08:42:00.477Z,98.87
2022-11-25T08:43:00.402Z,98.87
2022-11-25T08:44:00.413Z,98.87
2022-11-25T08:45:00.527Z,98.87
2022-11-25T08:46:00.409Z,98.87
2022-11-25T08:47:00.396Z,98.87
2022-11-25T08:48:00.330Z,98.87
2022-11-25T08:49:00.317Z,98.87
2022-11-25T08:50:00.336Z,98.87
2022-11-25T08:51:00.286Z,98.97
2022-11-25T08:52:00.374Z,98.97
2022-11-25T08:53:00.365Z,98.87
2022-11-25T08:54:00.264Z,98.87
2022-11-25T08:55:00.281Z,98.87
2022-11-25T08:56:00.345Z,98.87
2022-11-25T08:57:00.205Z,98.87
2022-11-25T08:58:00.189Z,98.87
2022-11-25T08:59:00.190Z,98.83
2022-11-25T09:00:00.196Z,98.83
2022-11-25T09:01:00.163Z,98.72
2022-11-25T09:02:00.377Z,98.72
2022-11-25T09:03:01.137Z,98.72
2022-11-25T09:04:00.126Z,98.62
2022-11-25T09:05:00.118Z,98.52
2022-11-25T09:06:00.324Z,98.52
2022-11-25T09:07:00.096Z,98.41
2022-11-25T09:08:00.130Z,98.31
2022-11-25T09:09:00.057Z,98.31
2022-11-25T09:10:00.230Z,98.21
2022-11-25T09:11:00.066Z,98.10
2022-11-25T09:12:00.043Z,98.10
2022-11-25T09:13:00.005Z,98.10
2022-11-25T09:14:00.077Z,98.10
2022-11-25T09:15:00.004Z,98.21
2022-11-25T09:16:00.060Z,98.21
2022-11-25T09:17:00.065Z,98.31
2022-11-25T09:18:00.143Z,98.31
2022-11-25T09:18:59.915Z,98.31
2022-11-25T09:19:59.924Z,98.41
2022-11-25T09:21:00.039Z,98.41
2022-11-25T09:21:59.893Z,98.41
2022-11-25T09:22:59.864Z,98.41
2022-11-25T09:23:59.883Z,98.41
2022-11-25T09:24:59.925Z,98.47
2022-11-25T09:25:59.843Z,98.47
2022-11-25T09:26:59.814Z,98.47
2022-11-25T09:27:59.813Z,98.47
2022-11-25T09:28:59.784Z,98.47
2022-11-25T09:29:59.814Z,98.57
2022-11-25T09:30:59.940Z,98.57
2022-11-25T09:31:59.852Z,98.47
2022-11-25T09:32:59.916Z,98.47
2022-11-25T09:33:59.754Z,98.37
2022-11-25T09:34:59.715Z,98.27
2022-11-25T09:35:59.724Z,98.27
2022-11-25T09:36:59.674Z,98.27
2022-11-25T09:37:59.684Z,98.27
2022-11-25T09:38:59.648Z,98.27
2022-11-25T09:39:59.650Z,98.27
2022-11-25T09:40:59.621Z,98.16
2022-11-25T09:41:59.622Z,98.06
2022-11-25T09:42:59.592Z,98.16
2022-11-25T09:43:59.582Z,98.16
2022-11-25T09:44:59.605Z,98.27
2022-11-25T09:45:59.643Z,98.37
2022-11-25T09:46:59.856Z,98.47
2022-11-25T09:47:59.546Z,98.47
2022-11-25T09:48:59.633Z,98.57
2022-11-25T09:49:59.554Z,98.57
2022-11-25T09:50:59.587Z,98.68
2022-11-25T09:51:59.526Z,98.63
2022-11-25T09:52:59.474Z,98.63
2022-11-25T09:53:59.474Z,98.63
2022-11-25T09:54:59.844Z,98.63
2022-11-25T09:56:01.596Z,98.63
2022-11-25T09:56:59.435Z,98.74
2022-11-25T09:57:59.969Z,98.74
2022-11-25T09:58:59.405Z,98.74
2022-11-25T09:59:59.409Z,98.63
2022-11-25T10:00:59.412Z,98.63
2022-11-25T10:01:59.420Z,98.63
2022-11-25T10:02:59.504Z,98.58
2022-11-25T10:03:59.345Z,98.58
2022-11-25T10:04:59.334Z,98.58
2022-11-25T10:05:59.333Z,98.58
2022-11-25T10:06:59.360Z,98.58
2022-11-25T10:07:59.313Z,98.58
2022-11-25T10:08:59.284Z,98.58
2022-11-25T10:09:59.272Z,98.54
2022-11-25T10:10:59.288Z,98.65
2022-11-25T10:11:59.242Z,98.65
2022-11-25T10:12:59.235Z,98.54
2022-11-25T10:13:59.213Z,98.65
2022-11-25T10:14:59.202Z,98.65
2022-11-25T10:15:59.237Z,98.60
2022-11-25T10:16:59.164Z,98.60
2022-11-25T10:17:59.180Z,98.60
2022-11-25T10:18:59.167Z,98.70
2022-11-25T10:19:59.160Z,98.55
2022-11-25T10:20:59.142Z,98.55
2022-11-25T10:21:59.125Z,98.50
2022-11-25T10:22:59.107Z,98.41
2022-11-25T10:23:59.098Z,98.30
2022-11-25T10:24:59.066Z,98.15
2022-11-25T10:25:59.082Z,98.05
2022-11-25T10:26:59.046Z,98.05
2022-11-25T10:27:59.035Z,97.95
2022-11-25T10:28:59.023Z,98.05
2022-11-25T10:29:59.015Z,98.05
2022-11-25T10:30:59.075Z,97.95
2022-11-25T10:31:58.993Z,97.74
2022-11-25T10:33:02.346Z,97.64
2022-11-25T10:33:58.968Z,97.43
2022-11-25T10:34:59.225Z,97.18
2022-11-25T10:35:58.947Z,96.97
2022-11-25T10:36:58.921Z,96.67
2022-11-25T10:37:58.914Z,96.56
2022-11-25T10:38:58.905Z,96.67
2022-11-25T10:39:58.883Z,96.67
2022-11-25T10:40:58.895Z,96.67
2022-11-25T10:41:58.847Z,96.77
2022-11-25T10:42:58.844Z,96.67
2022-11-25T10:43:58.832Z,96.56
2022-11-25T10:44:58.804Z,96.42
2022-11-25T10:45:58.824Z,96.21
2022-11-25T10:47:13.395Z,96.00
2022-11-25T10:47:59.782Z,95.80
2022-11-25T10:48:58.775Z,95.28
2022-11-25T10:49:58.754Z,94.98
2022-11-25T10:50:58.763Z,94.83
2022-11-25T10:51:58.713Z,94.73
2022-11-25T10:52:58.694Z,94.62
2022-11-25T10:53:58.702Z,94.52
2022-11-25T10:54:58.692Z,94.48
2022-11-25T10:55:58.676Z,94.31
2022-11-25T10:56:58.676Z,94.17
2022-11-25T10:57:58.655Z,97.41
2022-11-25T10:58:58.634Z,97.47
2022-11-25T10:59:58.638Z,96.65
2022-11-25T11:00:58.624Z,95.31
2022-11-25T11:01:58.707Z,94.18
2022-11-25T11:02:58.739Z,93.77
2022-11-25T11:03:58.563Z,93.36
2022-11-25T11:04:58.569Z,93.26
2022-11-25T11:05:58.524Z,92.95
2022-11-25T11:06:58.552Z,92.85
2022-11-25T11:07:58.550Z,92.85
2022-11-25T11:08:58.502Z,92.44
2022-11-25T11:09:58.488Z,92.44
2022-11-25T11:10:58.483Z,92.33
2022-11-25T11:11:58.504Z,92.54
2022-11-25T11:12:58.452Z,92.33
2022-11-25T11:13:58.439Z,92.85
2022-11-25T11:14:58.423Z,92.48
2022-11-25T11:15:58.445Z,92.27
2022-11-25T11:16:58.423Z,92.48
2022-11-25T11:17:58.383Z,92.69
2022-11-25T11:18:58.376Z,92.89
2022-11-25T11:19:58.353Z,92.99
2022-11-25T11:20:58.346Z,93.10
2022-11-25T11:21:58.341Z,93.40
2022-11-25T11:22:58.325Z,93.51
2022-11-25T11:23:58.275Z,93.61
2022-11-25T11:24:58.282Z,93.51
2022-11-25T11:25:58.276Z,93.51
2022-11-25T11:26:58.282Z,93.40
2022-11-25T11:27:58.237Z,93.30
2022-11-25T11:28:58.235Z,93.10
2022-11-25T11:29:58.213Z,93.10
2022-11-25T11:30:58.318Z,93.30
2022-11-25T11:31:58.212Z,93.51
2022-11-25T11:32:58.183Z,93.82
2022-11-25T11:33:58.152Z,94.02
2022-11-25T11:34:58.153Z,94.23
2022-11-25T11:35:58.123Z,94.33
2022-11-25T11:36:58.168Z,94.54
2022-11-25T11:37:58.104Z,96.44
2022-11-25T11:38:58.105Z,98.76
2022-11-25T11:39:58.075Z,99.95
2022-11-25T11:40:58.074Z,99.18
2022-11-25T11:41:58.071Z,98.67
2022-11-25T11:42:58.043Z,97.19
2022-11-25T11:43:58.027Z,96.26
2022-11-25T11:44:58.026Z,95.61
2022-11-25T11:45:58.045Z,94.74
2022-11-25T11:46:58.060Z,93.92
2022-11-25T11:47:57.964Z,92.65
2022-11-25T11:48:57.963Z,91.42
2022-11-25T11:49:57.933Z,90.45
2022-11-25T11:50:58.004Z,89.53
2022-11-25T11:51:57.995Z,88.35
2022-11-25T11:52:57.937Z,88.14
2022-11-25T11:53:57.888Z,88.24
2022-11-25T11:54:57.882Z,89.11
2022-11-25T11:56:26.935Z,89.62
2022-11-25T11:57:00.264Z,90.44
2022-11-25T11:57:58.340Z,90.09
2022-11-25T11:58:57.835Z,89.98
2022-11-25T11:59:58.252Z,89.78
2022-11-25T12:00:57.804Z,89.68
2022-11-25T12:01:57.849Z,89.17
2022-11-25T12:02:57.780Z,89.06
2022-11-25T12:03:57.766Z,89.47
2022-11-25T12:04:57.758Z,89.43
2022-11-25T12:05:57.724Z,89.33
2022-11-25T12:06:57.743Z,88.92
2022-11-25T12:07:57.782Z,88.82
2022-11-25T12:08:57.713Z,88.57
2022-11-25T12:09:57.666Z,88.06
2022-11-25T12:10:57.674Z,87.49
2022-11-25T12:11:57.655Z,87.32
2022-11-25T12:12:57.884Z,87.53
2022-11-25T12:14:00.859Z,88.29
2022-11-25T12:14:58.027Z,89.00
2022-11-25T12:15:58.173Z,89.66
2022-11-25T12:16:57.651Z,89.97
2022-11-25T12:17:57.575Z,90.42
2022-11-25T12:18:57.563Z,90.62
2022-11-25T12:19:57.553Z,90.83
2022-11-25T12:20:57.565Z,91.28
2022-11-25T12:21:57.524Z,91.80
2022-11-25T12:22:57.527Z,92.10
2022-11-25T12:23:57.486Z,92.66
2022-11-25T12:24:57.483Z,93.07
2022-11-25T12:25:57.453Z,93.27
2022-11-25T12:26:57.445Z,93.59
2022-11-25T12:27:57.445Z,93.68
2022-11-25T12:28:57.434Z,93.79
2022-11-25T12:29:57.414Z,93.99
2022-11-25T12:31:01.869Z,94.40
2022-11-25T12:31:58.467Z,95.02
2022-11-25T12:32:57.394Z,95.12
2022-11-25T12:33:57.357Z,95.27
2022-11-25T12:34:57.357Z,95.37
2022-11-25T12:35:57.336Z,95.37
2022-11-25T12:36:57.329Z,95.37
2022-11-25T12:37:57.333Z,95.47
2022-11-25T12:38:57.295Z,95.47
2022-11-25T12:39:57.276Z,95.47
2022-11-25T12:40:57.255Z,95.57
2022-11-25T12:41:57.245Z,95.68
2022-11-25T12:42:57.281Z,95.78
2022-11-25T12:43:57.224Z,95.74
2022-11-25T12:44:57.215Z,95.74
2022-11-25T12:45:57.283Z,96.09
2022-11-25T12:46:57.194Z,96.50
2022-11-25T12:47:57.208Z,96.70
2022-11-25T12:48:57.166Z,96.91
2022-11-25T12:49:57.286Z,97.22
2022-11-25T12:50:57.138Z,97.32
2022-11-25T12:51:57.115Z,97.22
2022-11-25T12:52:57.145Z,97.12
2022-11-25T12:53:57.088Z,97.12
2022-11-25T12:54:57.084Z,97.12
2022-11-25T12:55:57.065Z,97.12